KRNT - Renton, Washington, USA
Distance from station: W 21mi, 33km
Updated: Tue, 07-Feb-2023 8:53am PST
Light rain, Overcast
Light rain, Overcast
 Wind from S
Wind: S 8 mph , 13 km/h
Temperature: 48°F , 9°C
Wind Chill: 44°F , 7°C
Dew Point: 43°F , 6°C
Humidity: 82%
Barometer: 30.12 inHg , 1020 hPa
Visibility: 7 miles , 11 km
Cloud details: 3600 ft
2023/02/07 16:53 KRNT 071653Z 17007KT 7SM -RA OVC036 09/06 A3012 RMK AO2 SLP203 P0000 T00890056
KBFI - Seattle/Boeing, Washington, USA
Distance from station: W 25mi, 41km
Updated: Tue, 07-Feb-2023 8:53am PST
Light rain, Mist, Overcast
Light rain, Mist, Overcast
 Wind from S
Wind: S 12 mph , 19 km/h
Temperature: 46°F , 8°C
Wind Chill: 40°F , 4°C
Dew Point: 43°F , 6°C
Humidity: 87%
Barometer: 30.12 inHg , 1020 hPa
Summary: Light rain, Mist
Visibility: 6 miles , 10 km
Cloud details: 1700 ft
3300 ft
2023/02/07 16:53 KBFI 071653Z 17010KT 6SM -RA BR BKN017 OVC033 08/06 A3012 RMK AO2 SLP197 P0002 T00780056
 
KSEA - Seattle/Metro, Washington, USA
Distance from station: W 25mi, 41km
Updated: Tue, 07-Feb-2023 8:53am PST
Light rain, Mist, Overcast
Light rain, Mist, Overcast
 Wind from S
Wind: S 13 mph , 20 km/h
Temperature: 45°F , 7°C
Wind Chill: 39°F , 4°C
Dew Point: 39°F , 4°C
Humidity: 81%
Barometer: 30.11 inHg , 1019.6 hPa
Summary: Light rain, Mist
Visibility: 7 miles , 11 km
Cloud details: 3000 ft
3800 ft
2023/02/07 16:53 KSEA 071653Z 18011KT 7SM -RA BR BKN030 OVC038 07/04 A3011 RMK AO2 SLP205 P0003 T00720044
KSMP - Stampede Pass, Washington, USA
Distance from station: SE 26mi, 41km
Updated: Tue, 07-Feb-2023 9:06am PST
Snow, Fog, Overcast
Snow, Fog, Overcast
 Wind from calm
Wind: Calm
Temperature: 32°F , 0°C
Dew Point: 30°F , -1°C
Humidity: 93%
Barometer: 30.08 inHg , 1018.6 hPa
Summary: Snow, Fog
Visibility: 1/2 mile , 0.8 km
Cloud details: 1400 ft
2023/02/07 17:06 KSMP 071706Z AUTO 00000KT 1/2SM SN FG VV014 00/M01 A3008 RMK AO2 P0000 T00001011
 
KPLU - Puyallup/Thun, Washington, USA
Distance from station: SW 36mi, 59km
Updated: Wed, 28-Dec-2022 9:55pm PST
NOT Current

 Wind from calm
Wind: Calm
Temperature: 41°F , 5°C
Dew Point: 41°F , 5°C
Humidity: 100%
Barometer: 29.78 inHg , 1008.5 hPa
Visibility: 10 miles , 16 km
Cloud details: 3800 ft
2022/12/29 05:55 KPLU 290555Z AUTO 00000KT 10SM OVC038 05/05 A2978 RMK AO2
KPAE - Everett, Washington, USA
Distance from station: NW 37mi, 60km
Updated: Tue, 07-Feb-2023 8:53am PST
Light rain, Mist, Overcast
Light rain, Mist, Overcast
 Wind from S
Wind: S 14 mph , 22 km/h, Gust: 26 mph , 43 km/h
Temperature: 45°F , 7°C
Wind Chill: 39°F , 4°C
Dew Point: 39°F , 4°C
Humidity: 81%
Barometer: 30.10 inHg , 1019.3 hPa
Summary: Light rain, Mist
Visibility: 5 miles , 8 km
Cloud details: 2100 ft
2023/02/07 16:53 KPAE 071653Z 17012G23KT 5SM -RA BR OVC021 07/04 A3010 RMK AO2 RAB05 SLP196 P0000 T00670044
 
KTIW - Tacoma, Washington, USA
Distance from station: WSW 41mi, 66km
Updated: Tue, 07-Feb-2023 8:53am PST
Light rain, Overcast
Light rain, Overcast
 Wind from S
Wind: S 16 mph , 26 km/h, Gust: 28 mph , 44 km/h
Temperature: 46°F , 8°C
Wind Chill: 39°F , 4°C
Dew Point: 43°F , 6°C
Humidity: 87%
Barometer: 30.11 inHg , 1019.6 hPa
Visibility: 10 miles , 16 km
Cloud details: 5500 ft
2023/02/07 16:53 KTIW 071653Z 19014G24KT 10SM -RA OVC055 08/06 A3011 RMK AO2 SLP199 P0001 T00830056
KTCM - Tacoma/Mc Chord, Washington, USA
Distance from station: SW 42mi, 67km
Updated: Tue, 07-Feb-2023 8:09am PST
Light rain, Partly cloudy
Light rain, Partly cloudy
 Wind from S
Wind: S 10 mph , 17 km/h
Temperature: 45°F , 7°C
Wind Chill: 40°F , 4°C
Dew Point: 45°F , 7°C
Humidity: 100%
Barometer: 30.13 inHg , 1020.3 hPa
Visibility: 10 miles , 16 km
Cloud details: 2300 ft
6000 ft
7500 ft
2023/02/07 16:09 KTCM 071609Z AUTO 18009KT 10SM -RA FEW023 FEW060 SCT075 07/07 A3013 RMK AO2 RAE00RAB09 SLP208
 
KPWT - Bremerton Ntnl, Washington, USA
Distance from station: W 45mi, 73km
Updated: Tue, 07-Feb-2023 8:56am PST
Light rain, Overcast
Light rain, Overcast
 Wind from SSW
Wind: SSW 18 mph , 30 km/h, Gust: 26 mph , 43 km/h
Temperature: 43°F , 6°C
Wind Chill: 35°F , 2°C
Dew Point: 43°F , 6°C
Humidity: 100%
Barometer: 30.09 inHg , 1019 hPa
Visibility: 10 miles , 16 km
Cloud details: 700 ft
2023/02/07 16:56 KPWT 071656Z AUTO 20016G23KT 10SM -RA OVC007 06/06 A3009 RMK AO2 SLP196 P0009 T00610061
KGRF - Fort Lewis/Gray, Washington, USA
Distance from station: SW 48mi, 77km
Updated: Tue, 07-Feb-2023 8:05am PST
Light rain, Few clouds
Light rain, Few clouds
 Wind from SSE
Wind: SSE 17 mph , 28 km/h, Gust: 28 mph , 44 km/h
Temperature: 46°F , 8°C
Wind Chill: 39°F , 4°C
Dew Point: 41°F , 5°C
Humidity: 82%
Barometer: 30.11 inHg , 1019.6 hPa
Visibility: 10 miles , 16 km
Cloud details: 2200 ft
5500 ft
2023/02/07 16:05 KGRF 071605Z 15015G24KT 10SM -RA FEW022 FEW055 08/05 A3011 RMK AO2A RAB05 SLP201 $
 
KAWO - Arlington Muni, Washington, USA
Distance from station: NNW 50mi, 80km
Updated: Tue, 07-Feb-2023 8:56am PST

 Wind from SSE
Wind: SSE 21 mph , 33 km/h
Temperature: 46°F , 8°C
Wind Chill: 38°F , 3°C
Dew Point: 41°F , 5°C
Humidity: 82%
Barometer: 30.10 inHg , 1019.3 hPa
Visibility: 10 miles , 16 km
Cloud details: 2400 ft
2023/02/07 16:56 KAWO 071656Z AUTO 16018KT 10SM OVC024 08/05 A3010 RMK AO2 PK WND 16026/1630 SLP196 T00830050